createdAt,value
2023-02-19T00:03:10.631Z,2.10
2023-02-19T00:08:12.076Z,2.40
2023-02-19T00:13:17.663Z,2.10
2023-02-19T00:18:19.127Z,2.25
2023-02-19T00:23:20.597Z,1.95
2023-02-19T00:28:22.488Z,2.05
2023-02-19T00:33:23.961Z,2.33
2023-02-19T00:38:25.385Z,2.03
2023-02-19T00:43:27.022Z,2.55
2023-02-19T00:53:29.939Z,2.22
2023-02-19T00:58:31.433Z,2.30
2023-02-19T01:03:37.087Z,2.55
2023-02-19T01:08:38.948Z,2.53
2023-02-19T01:13:40.763Z,2.30
2023-02-19T01:18:42.706Z,2.22
2023-02-19T01:23:44.322Z,2.38
2023-02-19T01:33:59.197Z,2.30
2023-02-19T01:39:03.961Z,1.85
2023-02-19T01:44:28.383Z,1.80
2023-02-19T01:49:39.742Z,2.10
2023-02-19T01:54:44.100Z,2.25
2023-02-19T01:59:48.323Z,1.92
2023-02-19T02:04:49.998Z,1.73
2023-02-19T02:10:10.818Z,1.83
2023-02-19T02:15:13.860Z,1.80
2023-02-19T02:20:35.523Z,1.70
2023-02-19T02:26:09.869Z,1.27
2023-02-19T02:31:23.918Z,1.55
2023-02-19T02:41:32.343Z,1.17
2023-02-19T02:46:36.813Z,1.00
2023-02-19T02:51:43.622Z,1.00
2023-02-19T02:56:59.468Z,1.05
2023-02-19T03:02:14.715Z,0.80
2023-02-19T03:07:16.819Z,0.70
2023-02-19T03:12:39.601Z,0.60
2023-02-19T03:18:06.035Z,0.73
2023-02-19T03:23:12.845Z,1.02
2023-02-19T03:28:17.608Z,0.80
2023-02-19T03:33:24.910Z,1.20
2023-02-19T03:38:53.659Z,0.80
2023-02-19T03:44:41.939Z,0.70
2023-02-19T03:49:54.663Z,0.60
2023-02-19T03:55:16.559Z,0.47
2023-02-19T04:00:38.658Z,0.40
2023-02-19T04:05:47.583Z,0.43
2023-02-19T04:10:51.868Z,0.30
2023-02-19T04:15:56.882Z,0.38
2023-02-19T04:21:00.400Z,0.30
2023-02-19T04:26:03.689Z,0.40
2023-02-19T04:31:05.552Z,0.40
2023-02-19T04:36:07.965Z,0.43
2023-02-19T04:41:10.233Z,0.50
2023-02-19T04:46:11.822Z,0.40
2023-02-19T04:51:13.509Z,0.60
2023-02-19T04:56:16.703Z,0.30
2023-02-19T05:01:18.183Z,0.30
2023-02-19T05:06:19.702Z,0.30
2023-02-19T05:11:23.692Z,0.50
2023-02-19T05:16:25.171Z,0.30
2023-02-19T05:21:26.838Z,0.30
2023-02-19T05:31:33.584Z,0.40
2023-02-19T05:36:37.081Z,0.10
2023-02-19T05:41:39.097Z,0.30
2023-02-19T05:46:40.575Z,0.10
2023-02-19T05:51:42.068Z,0.30
2023-02-19T05:56:43.511Z,0.20
2023-02-19T06:01:45.849Z,0.30
2023-02-19T06:06:48.102Z,0.35
2023-02-19T06:11:49.549Z,0.15
2023-02-19T06:16:50.994Z,0.20
2023-02-19T06:21:52.457Z,0.20
2023-02-19T06:26:53.932Z,0.30
2023-02-19T06:31:55.477Z,0.45
2023-02-19T06:36:57.947Z,0.40
2023-02-19T06:41:59.474Z,0.20
2023-02-19T06:47:00.914Z,0.20
2023-02-19T06:52:03.635Z,0.60
2023-02-19T06:57:05.122Z,0.40
2023-02-19T07:02:07.156Z,0.63
2023-02-19T07:07:11.884Z,0.55
2023-02-19T07:12:13.326Z,1.20
2023-02-19T07:17:14.818Z,0.95
2023-02-19T07:22:16.249Z,0.82
2023-02-19T07:27:17.800Z,0.80
2023-02-19T07:32:19.237Z,1.30
2023-02-19T07:37:20.686Z,1.83
2023-02-19T07:42:22.171Z,1.25
2023-02-19T07:47:24.374Z,1.25
2023-02-19T07:52:25.940Z,1.83
2023-02-19T07:57:29.134Z,2.10
2023-02-19T08:02:49.305Z,1.52
2023-02-19T08:07:50.758Z,1.88
2023-02-19T08:13:15.526Z,2.05
2023-02-19T08:18:18.127Z,1.63
2023-02-19T08:23:22.466Z,2.50
2023-02-19T08:28:23.907Z,2.03
2023-02-19T08:33:25.335Z,2.85
2023-02-19T08:38:27.787Z,2.50
2023-02-19T08:43:29.239Z,2.40
2023-02-19T08:48:30.700Z,2.40
2023-02-19T08:53:32.858Z,2.50
2023-02-19T08:58:34.391Z,1.05
2023-02-19T09:03:35.865Z,1.60
2023-02-19T09:08:37.312Z,1.60
2023-02-19T09:13:38.792Z,1.60
2023-02-19T09:18:40.254Z,1.60
2023-02-19T09:23:41.690Z,1.02
2023-02-19T09:28:43.176Z,1.10
2023-02-19T09:33:46.714Z,0.73
2023-02-19T09:38:48.179Z,1.27
2023-02-19T09:43:49.723Z,0.82
2023-02-19T09:48:55.744Z,0.70
2023-02-19T09:53:58.050Z,0.82
2023-02-19T09:59:00.042Z,1.40
2023-02-19T10:09:23.658Z,1.60
2023-02-19T10:14:31.213Z,1.20
2023-02-19T10:19:34.549Z,1.20
2023-02-19T10:24:38.522Z,0.60
2023-02-19T10:29:40.263Z,0.82
2023-02-19T10:34:41.699Z,0.80
2023-02-19T10:39:47.156Z,0.50
2023-02-19T10:44:58.380Z,0.68
2023-02-19T10:50:03.290Z,0.70
2023-02-19T10:55:37.514Z,1.27
2023-02-19T11:00:39.479Z,0.68
2023-02-19T11:05:52.414Z,0.70
2023-02-19T11:10:54.310Z,0.77
2023-02-19T11:15:57.011Z,0.88
2023-02-19T11:21:06.968Z,1.15
2023-02-19T11:26:18.866Z,1.10
2023-02-19T11:31:20.332Z,1.10
2023-02-19T11:36:30.313Z,0.95
2023-02-19T11:41:38.272Z,1.20
2023-02-19T11:46:53.092Z,0.98
2023-02-19T11:52:06.802Z,1.05
2023-02-19T11:57:27.476Z,1.10
2023-02-19T12:03:02.886Z,0.90
2023-02-19T12:08:35.491Z,0.80
2023-02-19T12:13:55.584Z,0.80
2023-02-19T12:19:18.370Z,0.70
2023-02-19T12:24:41.657Z,0.77
2023-02-19T12:30:11.805Z,0.50
2023-02-19T12:35:28.055Z,0.88
2023-02-19T12:40:45.273Z,0.60
2023-02-19T12:46:09.322Z,0.80
2023-02-19T12:51:18.380Z,0.75
2023-02-19T12:56:58.210Z,0.70
2023-02-19T13:02:18.128Z,0.52
2023-02-19T13:07:35.764Z,0.60
2023-02-19T13:12:42.428Z,0.70
2023-02-19T13:17:55.022Z,0.70
2023-02-19T13:23:26.190Z,0.50
2023-02-19T13:29:00.220Z,0.70
2023-02-19T13:34:27.552Z,0.50
2023-02-19T13:39:31.016Z,0.52
2023-02-19T13:44:41.484Z,0.90
2023-02-19T13:49:49.191Z,0.50
2023-02-19T13:54:51.325Z,0.60
2023-02-19T13:59:55.282Z,0.73
2023-02-19T14:05:09.240Z,0.80
2023-02-19T14:10:14.405Z,0.80
2023-02-19T14:15:49.425Z,0.60
2023-02-19T14:21:07.007Z,0.80
2023-02-19T14:26:08.553Z,0.80
2023-02-19T14:31:25.309Z,0.90
2023-02-19T14:36:57.023Z,0.70
2023-02-19T14:42:01.684Z,0.82
2023-02-19T14:47:06.387Z,0.90
2023-02-19T14:52:21.163Z,0.70
2023-02-19T14:57:30.224Z,0.70
2023-02-19T15:02:32.397Z,0.85
2023-02-19T15:07:34.125Z,0.70
2023-02-19T15:12:46.344Z,0.50
2023-02-19T15:17:48.161Z,0.63
2023-02-19T15:27:51.402Z,0.70
2023-02-19T15:33:00.018Z,0.80
2023-02-19T15:38:01.528Z,0.70
2023-02-19T15:43:03.011Z,1.00
2023-02-19T15:48:07.151Z,0.90
2023-02-19T15:53:14.460Z,0.90
2023-02-19T15:58:53.708Z,0.57
2023-02-19T16:03:55.734Z,0.93
2023-02-19T16:09:06.668Z,0.70
2023-02-19T16:14:34.840Z,0.85
2023-02-19T16:19:51.132Z,0.63
2023-02-19T16:24:58.829Z,0.98
2023-02-19T16:30:07.038Z,0.98
2023-02-19T16:35:35.172Z,0.73
2023-02-19T16:40:48.644Z,1.00
2023-02-19T16:45:50.409Z,1.30
2023-02-19T16:50:51.926Z,2.03
2023-02-19T16:55:53.362Z,1.52
2023-02-19T17:00:54.846Z,1.02
2023-02-19T17:05:56.361Z,1.30
2023-02-19T17:10:59.004Z,1.17
2023-02-19T17:16:00.588Z,1.15
2023-02-19T17:21:21.276Z,1.13
2023-02-19T17:31:27.852Z,1.00
2023-02-19T17:36:31.595Z,1.02
2023-02-19T17:41:33.149Z,1.20
2023-02-19T17:46:34.658Z,1.30
2023-02-19T17:51:36.086Z,1.10
2023-02-19T17:56:39.899Z,1.33
2023-02-19T18:01:41.587Z,1.10
2023-02-19T18:06:43.291Z,1.10
2023-02-19T18:11:46.307Z,1.50
2023-02-19T18:16:50.233Z,1.23
2023-02-19T18:21:52.276Z,1.80
2023-02-19T18:26:53.719Z,1.33
2023-02-19T18:31:55.296Z,1.88
2023-02-19T18:36:57.213Z,1.40
2023-02-19T18:41:58.645Z,1.48
2023-02-19T18:47:00.135Z,1.67
2023-02-19T18:52:01.842Z,1.40
2023-02-19T18:57:04.465Z,1.40
2023-02-19T19:02:09.196Z,1.50
2023-02-19T19:07:10.883Z,1.83
2023-02-19T19:12:12.765Z,1.52
2023-02-19T19:17:14.206Z,1.52
2023-02-19T19:22:16.587Z,2.47
2023-02-19T19:27:20.044Z,1.70
2023-02-19T19:32:21.726Z,1.45
2023-02-19T19:37:23.192Z,1.73
2023-02-19T19:42:24.856Z,1.77
2023-02-19T19:47:26.301Z,1.77
2023-02-19T19:52:27.740Z,1.73
2023-02-19T19:57:29.167Z,1.27
2023-02-19T20:02:30.631Z,1.50
2023-02-19T20:07:32.208Z,1.45
2023-02-19T20:12:33.824Z,5.35
2023-02-19T20:17:35.605Z,1.92
2023-02-19T20:22:37.539Z,1.90
2023-02-19T20:27:38.992Z,1.90
2023-02-19T20:32:40.428Z,2.20
2023-02-19T20:37:41.876Z,1.40
2023-02-19T20:42:43.367Z,2.60
2023-02-19T20:47:44.922Z,2.17
2023-02-19T20:52:46.717Z,2.13
2023-02-19T20:57:48.152Z,1.50
2023-02-19T21:02:49.823Z,1.85
2023-02-19T21:07:51.314Z,1.90
2023-02-19T21:12:54.286Z,1.88
2023-02-19T21:17:55.812Z,1.70
2023-02-19T21:22:57.264Z,2.30
2023-02-19T21:27:58.709Z,1.92
2023-02-19T21:33:00.152Z,2.28
2023-02-19T21:38:03.687Z,1.95
2023-02-19T21:43:05.152Z,2.00
2023-02-19T21:48:07.710Z,1.65
2023-02-19T21:53:09.156Z,1.80
2023-02-19T21:58:11.019Z,1.70
2023-02-19T22:03:16.452Z,1.75
2023-02-19T22:08:18.010Z,1.60
2023-02-19T22:13:19.508Z,1.38
2023-02-19T22:18:20.961Z,1.45
2023-02-19T22:23:22.605Z,1.75
2023-02-19T22:28:24.195Z,2.00
2023-02-19T22:33:25.622Z,1.35
2023-02-19T22:38:27.068Z,1.67
2023-02-19T22:43:28.514Z,1.63
2023-02-19T22:48:31.187Z,2.50
2023-02-19T22:53:32.627Z,1.90
2023-02-19T22:58:34.092Z,2.45
2023-02-19T23:03:48.726Z,1.73
2023-02-19T23:08:51.290Z,2.53
2023-02-19T23:13:53.284Z,1.83
2023-02-19T23:18:54.986Z,2.35
2023-02-19T23:23:56.498Z,2.15
2023-02-19T23:28:57.953Z,2.90
2023-02-19T23:33:59.408Z,2.95
2023-02-19T23:39:00.853Z,3.47
2023-02-19T23:44:02.340Z,3.30
2023-02-19T23:49:03.803Z,3.00
2023-02-19T23:54:05.327Z,3.63
2023-02-19T23:59:06.777Z,3.38
